Time;durP1;ratioP1;P1;durP2;ratioP2;P2;SDS_P1;SDS_P2;PMS_P1;PMS_P2;Temp;Humidity;BMP_temperature;BMP_pressure;BME280_temperature;BME280_humidity;BME280_pressure;Samples;Min_cycle;Max_cycle;Signal;HPM_P1;HPM_P2
2022/08/29 01:13:48;;;;;;;71.07;10.75;;;;;;;26.43;45.57;101856.09;4098593;27;4738134;-60
2022/08/29 01:15:53;;;;;;;24.10;6.90;;;;;;;26.67;45.69;101861.78;4246003;28;20043;-59
2022/08/29 01:17:59;;;;;;;15.02;7.25;;;;;;;26.93;44.93;101868.72;4230141;27;20089;-59
2022/08/29 01:20:42;;;;;;;23.92;7.10;;;;;;;27.27;43.96;101864.97;4229003;28;20052;-59
2022/08/29 01:23:01;;;;;;;24.58;7.15;;;;;;;27.57;43.45;101875.75;4198594;28;20043;-59
2022/08/29 01:25:07;;;;;;;45.67;7.25;;;;;;;27.76;42.56;101869.31;4228343;28;20036;-59
2022/08/29 01:27:11;;;;;;;25.25;7.10;;;;;;;27.95;42.56;101877.72;4228288;28;20044;-59
2022/08/29 01:29:17;;;;;;;20.77;7.93;;;;;;;28.06;42.19;101871.63;4228454;28;20496;-58
2022/08/29 01:31:22;;;;;;;33.25;6.95;;;;;;;28.20;41.87;101871.66;4233134;28;20486;-58
2022/08/29 01:33:23;;;;;;;33.65;7.20;;;;;;;28.34;41.48;101868.88;4244798;28;20455;-58
2022/08/29 01:35:25;;;;;;;27.20;7.10;;;;;;;28.44;41.13;101868.72;4245029;27;20080;-60
2022/08/29 01:37:33;;;;;;;12.70;6.05;;;;;;;28.43;40.75;101852.16;4244383;27;20119;-57
2022/08/29 01:39:37;;;;;;;19.27;7.28;;;;;;;28.59;40.42;101861.94;4245202;27;20044;-58
2022/08/29 01:41:40;;;;;;;17.15;7.03;;;;;;;28.64;40.25;101867.50;4245313;28;20024;-57
2022/08/29 01:43:50;;;;;;;11.60;6.35;;;;;;;28.68;40.25;101870.50;4242827;27;20125;-58
2022/08/29 01:45:52;;;;;;;15.00;6.95;;;;;;;28.70;40.26;101863.44;4233469;27;20043;-58
2022/08/29 01:47:53;;;;;;;13.25;6.43;;;;;;;28.70;40.34;101860.63;4245199;27;20035;-58
2022/08/29 01:49:55;;;;;;;16.15;6.50;;;;;;;28.76;40.20;101867.81;4231983;27;20036;-57
2022/08/29 01:51:56;;;;;;;13.23;6.43;;;;;;;28.79;40.12;101866.38;4229048;27;20471;-57
2022/08/29 01:53:57;;;;;;;11.85;6.20;;;;;;;28.74;39.80;101861.66;4228329;28;20036;-58
2022/08/29 01:55:59;;;;;;;15.93;6.57;;;;;;;28.82;39.98;101874.19;4228448;28;20032;-57
2022/08/29 01:58:04;;;;;;;14.35;6.10;;;;;;;28.79;39.93;101867.19;4228739;28;20105;-58
2022/08/29 02:00:16;;;;;;;14.07;6.22;;;;;;;28.72;39.46;101865.94;4236687;28;20039;-57
2022/08/29 02:02:26;;;;;;;20.88;6.85;;;;;;;28.78;39.36;101882.44;4244170;27;20433;-57
2022/08/29 02:04:27;;;;;;;15.07;6.43;;;;;;;28.78;39.59;101876.81;4228321;27;20556;-57
2022/08/29 02:06:28;;;;;;;22.67;8.63;;;;;;;28.77;39.82;101880.78;4225703;28;20095;-57
2022/08/29 02:08:33;;;;;;;15.75;6.88;;;;;;;28.79;40.27;101877.63;4228281;28;20040;-57
2022/08/29 02:10:35;;;;;;;15.55;6.70;;;;;;;28.78;40.40;101879.63;4227469;28;20044;-58
2022/08/29 02:12:39;;;;;;;15.60;6.53;;;;;;;28.73;40.74;101862.81;4227893;28;20441;-57
2022/08/29 02:14:42;;;;;;;21.45;6.80;;;;;;;28.82;41.06;101872.22;4227560;28;20040;-58
2022/08/29 02:16:43;;;;;;;18.38;6.68;;;;;;;28.83;41.36;101875.88;4228168;28;20032;-58
2022/08/29 02:18:47;;;;;;;16.83;7.00;;;;;;;28.83;41.47;101885.16;4227662;28;20032;-57
2022/08/29 02:20:49;;;;;;;14.55;6.60;;;;;;;28.84;41.72;101885.97;4227761;28;20479;-58
2022/08/29 02:22:50;;;;;;;20.42;7.15;;;;;;;28.85;42.03;101888.47;4227524;28;20089;-58
2022/08/29 02:24:52;;;;;;;19.30;7.03;;;;;;;28.87;42.24;101891.81;4218337;28;20047;-58
2022/08/29 02:26:54;;;;;;;13.20;6.93;;;;;;;28.88;42.02;101899.13;4213930;28;20525;-58
2022/08/29 02:28:56;;;;;;;20.50;6.45;;;;;;;28.88;42.43;101899.13;4225098;28;20039;-58
2022/08/29 02:30:58;;;;;;;15.85;7.57;;;;;;;28.81;42.54;101872.50;4223127;28;20031;-58
2022/08/29 02:33:00;;;;;;;19.80;6.78;;;;;;;28.82;42.71;101877.03;4231532;28;20043;-58
2022/08/29 02:35:01;;;;;;;13.93;6.82;;;;;;;28.93;43.12;101886.09;4233080;28;20120;-58
2022/08/29 02:37:03;;;;;;;15.25;6.93;;;;;;;28.94;43.17;101893.38;4232763;28;20065;-58
2022/08/29 02:39:05;;;;;;;14.45;6.55;;;;;;;28.91;42.89;101875.13;4232903;28;20035;-58
2022/08/29 02:41:06;;;;;;;18.42;7.80;;;;;;;28.60;43.16;101829.84;4231689;28;20080;-57
2022/08/29 02:43:11;;;;;;;11.88;7.30;;;;;;;28.97;43.42;101887.16;4232363;28;20097;-60
2022/08/29 02:45:12;;;;;;;14.45;7.00;;;;;;;28.96;43.56;101882.69;4232598;28;20486;-58
2022/08/29 02:47:14;;;;;;;14.90;7.03;;;;;;;28.97;43.74;101878.72;4216436;28;20032;-58
2022/08/29 02:49:18;;;;;;;12.70;6.82;;;;;;;28.95;43.97;101880.94;4215369;28;20040;-58
2022/08/29 02:51:29;;;;;;;11.73;6.97;;;;;;;29.00;43.50;101889.34;4216794;28;20024;-58
2022/08/29 02:53:30;;;;;;;14.77;6.95;;;;;;;29.01;43.90;101886.22;4231665;28;20291;-58
2022/08/29 02:55:32;;;;;;;18.80;7.28;;;;;;;29.02;44.01;101892.69;4232713;28;20444;-58
2022/08/29 02:57:33;;;;;;;12.18;6.38;;;;;;;29.03;44.28;101894.34;4232683;28;20513;-58
2022/08/29 02:59:35;;;;;;;10.77;7.40;;;;;;;29.04;43.81;101901.66;4215838;27;20085;-58
2022/08/29 03:01:37;;;;;;;11.52;7.22;;;;;;;29.04;44.33;101887.56;4227053;28;20020;-58
2022/08/29 03:03:39;;;;;;;11.85;6.47;;;;;;;29.04;44.15;101888.38;4215610;28;20040;-58
2022/08/29 03:05:41;;;;;;;9.90;6.63;;;;;;;29.05;43.99;101895.72;4219797;28;20524;-58
2022/08/29 03:07:43;;;;;;;9.93;6.45;;;;;;;29.04;43.94;101896.00;4218023;28;20097;-58
2022/08/29 03:09:44;;;;;;;10.55;6.95;;;;;;;29.07;43.82;101898.22;4214857;28;20105;-59
2022/08/29 03:11:45;;;;;;;8.80;6.35;;;;;;;29.06;43.79;101893.72;4222568;28;20028;-57
2022/08/29 03:13:49;;;;;;;15.73;6.68;;;;;;;29.07;44.06;101901.03;4232331;28;20048;-57
2022/08/29 03:15:51;;;;;;;10.18;6.72;;;;;;;29.07;43.67;101898.22;4227056;28;20043;-57
2022/08/29 03:17:53;;;;;;;9.30;6.20;;;;;;;29.07;43.78;101910.31;4220411;28;20036;-57
2022/08/29 03:19:58;;;;;;;17.58;6.55;;;;;;;29.07;43.72;101901.88;4219970;28;20036;-57
2022/08/29 03:21:59;;;;;;;10.35;6.95;;;;;;;29.08;43.64;101900.72;4228586;28;20047;-57
2022/08/29 03:24:01;;;;;;;8.95;6.30;;;;;;;29.04;44.04;101902.47;4220371;28;20085;-57
2022/08/29 03:26:02;;;;;;;9.27;6.88;;;;;;;29.08;43.59;101905.50;4232013;28;20416;-57
2022/08/29 03:28:03;;;;;;;10.23;6.80;;;;;;;29.07;43.83;101901.03;4226885;28;20027;-58
2022/08/29 03:30:07;;;;;;;10.15;6.88;;;;;;;29.07;43.62;101901.03;4219202;28;20073;-57
2022/08/29 03:32:09;;;;;;;8.80;6.07;;;;;;;29.08;43.92;101908.31;4230777;28;20039;-58
2022/08/29 03:34:10;;;;;;;9.43;6.30;;;;;;;29.08;43.78;101909.16;4218056;28;20180;-57
2022/08/29 03:36:12;;;;;;;8.88;6.70;;;;;;;29.03;43.89;101895.19;4229600;28;20088;-57
2022/08/29 03:38:13;;;;;;;8.48;6.20;;;;;;;29.10;43.48;101906.06;4227334;28;20044;-57
2022/08/29 03:40:18;;;;;;;11.13;6.65;;;;;;;29.09;43.30;101910.00;4221616;28;20049;-57
2022/08/29 03:42:20;;;;;;;10.10;6.07;;;;;;;29.08;43.35;101909.16;4232317;28;20035;-58
2022/08/29 03:44:22;;;;;;;12.15;6.68;;;;;;;29.08;43.33;101909.16;4224428;28;20541;-58
2022/08/29 03:46:27;;;;;;;8.45;6.25;;;;;;;29.08;43.10;101905.50;4215259;28;20036;-58
2022/08/29 03:48:28;;;;;;;12.40;6.70;;;;;;;29.08;42.76;101908.31;4215237;28;20373;-58
2022/08/29 03:50:30;;;;;;;9.93;6.05;;;;;;;29.08;42.71;101913.97;4225768;28;20104;-58
2022/08/29 03:52:31;;;;;;;11.15;6.38;;;;;;;29.07;42.85;101913.13;4231378;28;20104;-58
2022/08/29 03:54:32;;;;;;;8.95;6.30;;;;;;;29.08;42.66;101913.97;4230780;28;20120;-58
2022/08/29 03:56:34;;;;;;;15.05;6.00;;;;;;;29.04;42.77;101913.75;4224465;28;20344;-58
2022/08/29 03:58:38;;;;;;;10.90;6.30;;;;;;;29.05;42.34;101921.09;4214673;28;20108;-58
2022/08/29 04:00:45;;;;;;;10.30;5.60;;;;;;;29.05;42.45;101908.97;4214913;28;20463;-58
2022/08/29 04:02:47;;;;;;;9.82;6.18;;;;;;;29.05;42.34;101925.88;4214727;28;20032;-58
2022/08/29 04:05:07;;;;;;;9.93;6.10;;;;;;;29.03;42.19;101923.38;4226315;28;20105;-58
2022/08/29 04:07:11;;;;;;;8.32;6.18;;;;;;;29.03;42.21;101933.81;4230670;28;20090;-58
2022/08/29 04:09:15;;;;;;;;;;;;;;;29.01;41.93;101930.47;4226330;28;20040;-58
2022/08/29 04:11:18;;;;;;;9.82;6.25;;;;;;;29.05;41.69;101925.88;4230524;28;19916;-58
2022/08/29 04:13:20;;;;;;;8.80;6.00;;;;;;;29.05;41.83;101931.53;4228429;28;20035;-58
2022/08/29 04:15:27;;;;;;;8.43;5.75;;;;;;;29.03;41.46;101939.44;4231079;28;20494;-59
2022/08/29 04:17:28;;;;;;;8.98;5.82;;;;;;;29.03;41.73;101939.44;4231082;28;20337;-57
2022/08/29 04:19:29;;;;;;;8.52;6.35;;;;;;;29.01;41.28;101936.09;4231603;28;20093;-57
2022/08/29 04:21:33;;;;;;;7.45;5.75;;;;;;;29.02;41.20;101946.22;4231276;28;20478;-58
2022/08/29 04:23:36;;;;;;;8.55;6.07;;;;;;;29.01;41.26;101944.56;4216772;28;20039;-58
2022/08/29 04:25:40;;;;;;;9.53;5.53;;;;;;;29.00;41.07;101948.50;4223060;28;20036;-57
2022/08/29 04:27:41;;;;;;;11.50;5.85;;;;;;;28.99;41.41;101950.50;4231082;28;20105;-58
2022/08/29 04:29:42;;;;;;;7.35;5.60;;;;;;;28.62;41.07;101886.69;4231258;28;20096;-58
2022/08/29 04:31:46;;;;;;;7.80;5.53;;;;;;;28.91;41.01;101934.31;4230737;28;20047;-58
2022/08/29 04:33:49;;;;;;;6.57;5.35;;;;;;;28.98;40.77;101948.00;4217609;28;20040;-58
2022/08/29 04:35:51;;;;;;;8.98;5.88;;;;;;;28.97;40.94;101951.97;4214145;28;20491;-57
2022/08/29 04:37:52;;;;;;;7.22;5.55;;;;;;;28.97;40.72;101943.50;4214108;28;20089;-58
2022/08/29 04:39:54;;;;;;;10.63;5.70;;;;;;;28.96;40.57;101947.50;4214448;28;20074;-58
2022/08/29 04:41:58;;;;;;;6.47;5.53;;;;;;;28.95;40.55;101946.63;4228895;28;20036;-57
2022/08/29 04:44:01;;;;;;;8.88;5.70;;;;;;;28.95;40.41;101954.22;4230886;28;20085;-58
2022/08/29 04:46:02;;;;;;;9.07;5.70;;;;;;;28.93;40.63;101957.34;4217675;28;20036;-58
2022/08/29 04:48:03;;;;;;;9.95;5.20;;;;;;;28.93;40.59;101954.53;4213649;28;20040;-58
2022/08/29 04:50:06;;;;;;;6.82;5.40;;;;;;;28.91;40.43;101951.22;4213559;28;20101;-57
2022/08/29 04:52:09;;;;;;;8.43;5.43;;;;;;;28.83;40.38;101940.66;4213636;28;20074;-58
2022/08/29 04:54:10;;;;;;;7.75;5.63;;;;;;;28.91;40.41;101961.63;4213954;28;20422;-58
2022/08/29 04:56:13;;;;;;;7.30;5.35;;;;;;;28.87;40.31;101948.16;4214378;28;20044;-58
2022/08/29 04:58:18;;;;;;;7.75;5.20;;;;;;;28.85;40.37;101943.97;4214459;28;20552;-58
2022/08/29 05:00:22;;;;;;;5.80;5.20;;;;;;;28.86;40.33;101951.28;4212912;28;20040;-57
2022/08/29 05:02:26;;;;;;;5.88;5.38;;;;;;;28.89;39.93;101959.13;4218219;28;20104;-58
2022/08/29 05:04:27;;;;;;;;;;;;;;;28.85;40.25;101950.44;4220362;28;20039;-58
2022/08/29 05:06:32;;;;;;;6.47;4.88;;;;;;;28.91;39.82;101950.34;4213921;28;19920;-58
2022/08/29 05:08:34;;;;;;;7.28;5.80;;;;;;;28.90;39.67;101954.31;4224818;28;20456;-58
2022/08/29 05:10:36;;;;;;;6.63;5.78;;;;;;;28.88;40.03;101955.47;4230187;28;20031;-58
2022/08/29 05:12:38;;;;;;;5.82;5.00;;;;;;;28.88;39.80;101954.63;4217137;28;20090;-58
2022/08/29 05:14:39;;;;;;;7.00;5.07;;;;;;;28.75;39.87;101939.38;4214178;28;20043;-58
2022/08/29 05:16:40;;;;;;;6.57;5.28;;;;;;;28.87;39.53;101953.81;4214372;28;20483;-58
2022/08/29 05:18:48;;;;;;;5.40;4.90;;;;;;;28.85;39.78;101958.06;4213611;28;20417;-58
2022/08/29 05:20:49;;;;;;;6.30;4.88;;;;;;;28.84;39.53;101954.41;4213134;28;20545;-58
2022/08/29 05:22:50;;;;;;;8.27;4.95;;;;;;;28.84;39.51;101951.59;4213889;28;20106;-58
2022/08/29 05:24:55;;;;;;;6.78;4.45;;;;;;;28.84;39.29;101957.22;4213939;28;20483;-58
2022/08/29 05:26:57;;;;;;;5.28;4.75;;;;;;;28.84;39.40;101950.78;4213742;28;20421;-57
2022/08/29 05:28:58;;;;;;;5.18;4.55;;;;;;;28.82;39.11;101956.72;4215549;28;20040;-58
2022/08/29 05:31:02;;;;;;;6.30;4.80;;;;;;;28.82;39.50;101950.25;4218526;28;20364;-57
2022/08/29 05:33:05;;;;;;;9.20;5.53;;;;;;;28.74;39.28;101931.25;4222736;28;20095;-59
2022/08/29 05:35:08;;;;;;;6.88;4.40;;;;;;;28.76;39.40;101943.88;4221018;28;20097;-58
2022/08/29 05:37:13;;;;;;;6.13;4.88;;;;;;;28.80;39.31;101947.72;4230651;28;20110;-57
2022/08/29 05:39:14;;;;;;;5.00;4.35;;;;;;;28.81;38.98;101951.38;4227414;28;20039;-57
2022/08/29 05:41:17;;;;;;;6.78;4.47;;;;;;;28.80;38.97;101947.72;4230134;28;20117;-58
2022/08/29 05:43:19;;;;;;;4.88;4.30;;;;;;;28.70;39.01;101933.84;4230417;28;20043;-58
2022/08/29 05:45:20;;;;;;;6.05;4.95;;;;;;;28.77;39.16;101942.75;4230507;28;20031;-58
2022/08/29 05:47:22;;;;;;;5.60;5.03;;;;;;;28.80;39.18;101947.72;4230312;28;20040;-58
2022/08/29 05:49:24;;;;;;;6.32;4.97;;;;;;;28.79;39.08;101945.25;4230122;28;20032;-58
2022/08/29 05:51:25;;;;;;;4.95;4.45;;;;;;;28.78;38.95;101950.03;4220660;28;20097;-58
2022/08/29 05:53:29;;;;;;;4.45;4.05;;;;;;;28.79;38.89;101954.53;4225204;28;20047;-59
2022/08/29 05:55:33;;;;;;;4.65;4.25;;;;;;;28.79;39.02;101946.06;4230322;28;20148;-58
2022/08/29 05:57:34;;;;;;;5.50;5.00;;;;;;;28.78;39.10;101944.41;4217374;28;20445;-58
2022/08/29 05:59:39;;;;;;;5.88;4.47;;;;;;;28.78;38.79;101944.41;4214955;28;20552;-58
2022/08/29 06:01:40;;;;;;;4.70;4.15;;;;;;;28.78;39.01;101947.22;4216567;28;20089;-58
2022/08/29 06:03:42;;;;;;;4.50;4.10;;;;;;;28.78;38.84;101943.56;4216653;28;20097;-58
2022/08/29 06:05:49;;;;;;;4.70;4.25;;;;;;;28.41;39.08;101888.22;4217109;28;20036;-58
2022/08/29 06:07:51;;;;;;;5.07;4.43;;;;;;;28.75;38.52;101936.56;4216636;28;20074;-58
2022/08/29 06:09:52;;;;;;;5.18;4.68;;;;;;;28.76;38.78;101935.41;4216942;28;20044;-58
2022/08/29 06:11:53;;;;;;;5.05;4.55;;;;;;;28.75;38.83;101945.00;4216360;28;20093;-58
2022/08/29 06:13:55;;;;;;;4.50;4.05;;;;;;;28.76;38.90;101941.03;4216549;28;20056;-58
2022/08/29 06:15:59;;;;;;;4.70;4.30;;;;;;;28.60;38.84;101908.69;4216337;28;20475;-57
2022/08/29 06:18:01;;;;;;;5.07;4.57;;;;;;;28.75;38.51;101938.56;4216599;28;20410;-62
2022/08/29 06:20:07;;;;;;;5.25;4.20;;;;;;;28.75;38.52;101928.13;4216153;28;20028;-58
2022/08/29 06:22:09;;;;;;;4.85;4.40;;;;;;;28.67;38.71;101913.91;4215971;28;20093;-58
2022/08/29 06:24:10;;;;;;;4.38;3.85;;;;;;;28.75;38.62;101928.13;4216192;28;20035;-58
2022/08/29 06:26:16;;;;;;;4.10;3.70;;;;;;;28.73;38.72;101924.78;4216470;28;20036;-58
2022/08/29 06:28:17;;;;;;;4.40;4.00;;;;;;;28.74;38.43;101926.44;4216150;28;20040;-58
2022/08/29 06:30:18;;;;;;;5.82;4.07;;;;;;;28.74;38.56;101922.81;4215736;28;20085;-57
2022/08/29 06:32:23;;;;;;;5.50;4.15;;;;;;;28.74;38.59;101925.63;4216401;28;20044;-57
2022/08/29 06:34:24;;;;;;;5.50;3.90;;;;;;;28.73;38.39;101913.53;4232780;28;20039;-57
2022/08/29 06:36:28;;;;;;;4.38;3.97;;;;;;;28.63;38.48;101899.63;4232980;27;20069;-57
2022/08/29 06:38:29;;;;;;;4.88;4.10;;;;;;;28.73;38.28;101918.31;4232672;28;20035;-58
2022/08/29 06:40:30;;;;;;;4.60;4.20;;;;;;;28.73;38.09;101927.59;4220652;28;20036;-58
2022/08/29 06:42:32;;;;;;;6.15;4.00;;;;;;;28.68;38.42;101913.59;4216233;28;20044;-57
2022/08/29 06:44:33;;;;;;;4.30;3.90;;;;;;;28.71;38.33;101915.81;4222991;28;20092;-57
2022/08/29 06:46:39;;;;;;;7.82;4.03;;;;;;;28.70;38.07;101908.50;4220135;28;20093;-57
2022/08/29 06:48:40;;;;;;;3.75;3.42;;;;;;;28.69;38.31;101912.47;4227459;28;20094;-57
2022/08/29 06:50:41;;;;;;;5.47;3.83;;;;;;;28.69;38.13;101912.47;4229947;28;20047;-58
2022/08/29 06:52:43;;;;;;;4.45;4.05;;;;;;;28.69;38.40;101918.09;4230940;28;20032;-57
2022/08/29 06:54:47;;;;;;;4.93;4.10;;;;;;;28.70;38.37;101916.13;4221351;28;20044;-57
2022/08/29 06:56:49;;;;;;;5.72;3.80;;;;;;;28.62;38.09;101906.41;4226661;28;20093;-57
2022/08/29 06:58:57;;;;;;;4.63;4.22;;;;;;;28.69;38.19;101915.28;4218084;28;20036;-57
2022/08/29 07:01:09;;;;;;;4.32;3.92;;;;;;;28.68;37.93;101916.41;4218615;28;20101;-57
2022/08/29 07:03:10;;;;;;;6.35;4.15;;;;;;;28.69;38.06;101906.00;4217278;28;20105;-57
2022/08/29 07:05:14;;;;;;;3.85;3.55;;;;;;;28.68;37.91;101910.78;4216098;28;20556;-57
2022/08/29 07:07:18;;;;;;;4.03;3.72;;;;;;;28.68;37.87;101916.41;4226571;28;20023;-57
2022/08/29 07:09:19;;;;;;;4.20;3.80;;;;;;;28.68;38.00;101909.94;4232529;28;20081;-57
2022/08/29 07:11:21;;;;;;;3.83;3.53;;;;;;;28.69;38.00;101911.66;4232176;28;20268;-59
2022/08/29 07:13:22;;;;;;;4.05;3.65;;;;;;;28.58;37.97;101888.44;4229782;28;20100;-57
2022/08/29 07:15:23;;;;;;;3.75;3.45;;;;;;;28.65;37.88;101905.78;4213983;28;20486;-58
2022/08/29 07:17:25;;;;;;;3.92;3.63;;;;;;;28.61;37.86;101893.47;4215743;28;20040;-57
2022/08/29 07:19:29;;;;;;;5.22;4.10;;;;;;;28.66;38.02;101907.44;4225942;28;20035;-57
2022/08/29 07:21:33;;;;;;;4.30;3.90;;;;;;;28.66;38.00;101907.44;4218105;28;20044;-58
2022/08/29 07:23:35;;;;;;;4.40;3.45;;;;;;;28.66;37.91;101901.00;4215312;28;20532;-57
2022/08/29 07:25:36;;;;;;;3.80;3.50;;;;;;;28.65;37.57;101905.78;4215209;28;20101;-57
2022/08/29 07:27:38;;;;;;;4.05;3.67;;;;;;;28.63;37.75;101902.44;4221424;28;20035;-57
2022/08/29 07:29:40;;;;;;;4.50;3.80;;;;;;;28.65;37.50;101900.16;4232673;28;20474;-57
2022/08/29 07:31:41;;;;;;;3.90;3.33;;;;;;;28.64;37.47;101898.50;4230746;28;20100;-57
2022/08/29 07:33:43;;;;;;;4.55;3.78;;;;;;;28.64;37.59;101892.84;4231971;28;20088;-57
2022/08/29 07:35:47;;;;;;;5.32;3.55;;;;;;;28.65;37.57;101899.31;4232185;28;20035;-57
2022/08/29 07:37:48;;;;;;;4.07;3.70;;;;;;;28.63;37.57;101894.81;4230638;28;20044;-58
2022/08/29 07:39:49;;;;;;;3.45;3.15;;;;;;;28.62;37.72;101890.34;4231815;28;20673;-57
2022/08/29 07:41:51;;;;;;;3.90;3.60;;;;;;;28.64;37.82;101887.22;4231652;28;20053;-57
2022/08/29 07:43:52;;;;;;;3.80;3.33;;;;;;;28.63;37.55;101888.34;4225728;28;20032;-57
2022/08/29 07:45:53;;;;;;;3.97;3.58;;;;;;;28.63;37.35;101893.97;4224315;28;20257;-57
2022/08/29 07:47:57;;;;;;;3.97;3.53;;;;;;;28.61;37.44;101888.66;4230905;28;20039;-57
2022/08/29 07:50:00;;;;;;;4.77;3.57;;;;;;;28.62;37.55;101895.13;4222286;28;20032;-57
2022/08/29 07:52:02;;;;;;;3.90;3.60;;;;;;;28.61;37.67;101893.47;4214596;28;20040;-58
2022/08/29 07:54:05;;;;;;;4.47;3.63;;;;;;;28.61;37.43;101890.66;4214814;28;20036;-57
2022/08/29 07:56:09;;;;;;;5.10;3.60;;;;;;;28.60;37.70;101897.44;4227097;28;20072;-57
2022/08/29 07:58:13;;;;;;;3.28;2.97;;;;;;;28.57;37.86;101889.59;4232179;28;20069;-57
2022/08/29 08:00:14;;;;;;;4.05;3.65;;;;;;;28.60;37.40;101894.63;4231337;28;20031;-57
2022/08/29 08:02:16;;;;;;;3.60;3.30;;;;;;;28.60;37.42;101889.00;4226875;28;20112;-58
2022/08/29 08:04:17;;;;;;;4.10;3.67;;;;;;;28.60;37.43;101886.19;4227164;28;20039;-57
2022/08/29 08:06:23;;;;;;;3.80;3.50;;;;;;;28.59;37.66;101876.91;4228196;28;20044;-57
2022/08/29 08:08:28;;;;;;;3.88;3.58;;;;;;;28.52;37.43;101861.53;4218762;27;20031;-58
2022/08/29 08:10:32;;;;;;;3.85;3.55;;;;;;;28.59;37.76;101867.59;4228657;28;20100;-57
2022/08/29 08:12:36;;;;;;;4.10;3.65;;;;;;;28.57;37.23;101869.88;4216826;28;20093;-57
2022/08/29 08:14:38;;;;;;;3.72;3.35;;;;;;;28.60;37.51;101872.09;4219441;28;20498;-57
2022/08/29 08:16:42;;;;;;;4.07;3.72;;;;;;;28.57;37.49;101864.25;4229261;28;20040;-57
2022/08/29 08:18:44;;;;;;;4.50;3.30;;;;;;;28.54;37.56;101867.69;4217879;28;20035;-58
2022/08/29 08:20:47;;;;;;;4.10;3.53;;;;;;;28.58;37.15;101872.38;4225452;28;20073;-57
2022/08/29 08:22:48;;;;;;;3.70;3.35;;;;;;;28.58;37.61;101877.19;4227632;28;20043;-57
2022/08/29 08:24:49;;;;;;;4.07;3.47;;;;;;;28.56;37.56;101874.69;4226609;28;20043;-58
2022/08/29 08:26:51;;;;;;;4.15;3.80;;;;;;;28.57;37.61;101869.88;4229523;28;20498;-57
2022/08/29 08:28:55;;;;;;;5.20;3.50;;;;;;;28.57;37.35;101869.88;4218455;28;20039;-57
2022/08/29 08:30:58;;;;;;;3.53;3.22;;;;;;;28.56;37.57;101873.88;4230500;28;20441;-57
2022/08/29 08:33:00;;;;;;;3.55;3.25;;;;;;;28.56;37.41;101871.03;4231181;28;20027;-57
2022/08/29 08:35:01;;;;;;;3.38;3.08;;;;;;;28.56;37.37;101871.03;4213685;28;20040;-57
2022/08/29 08:37:07;;;;;;;3.60;3.30;;;;;;;28.55;37.51;101867.41;4215701;28;20089;-58
2022/08/29 08:39:09;;;;;;;3.50;3.20;;;;;;;28.56;37.24;101871.03;4214491;28;20113;-58
2022/08/29 08:41:26;;;;;;;3.47;3.17;;;;;;;28.54;37.49;101867.69;4216813;28;20434;-57
2022/08/29 08:44:00;;;;;;;3.28;3.03;;;;;;;28.55;37.36;101867.41;4226586;28;20069;-62
2022/08/29 08:46:02;;;;;;;3.58;3.22;;;;;;;28.55;37.31;101864.59;4211280;28;20035;-58
2022/08/29 08:48:17;;;;;;;3.60;3.22;;;;;;;28.53;37.04;101869.69;4210960;28;20044;-58
2022/08/29 08:50:29;;;;;;;4.43;3.15;;;;;;;28.54;37.08;101870.50;4214265;28;20092;-57
2022/08/29 08:52:46;;;;;;;3.30;3.10;;;;;;;28.41;37.25;101845.97;4214390;28;20097;-58
2022/08/29 08:54:58;;;;;;;3.40;3.10;;;;;;;28.52;37.16;101870.00;4213870;28;20548;-58
2022/08/29 08:57:06;;;;;;;3.13;2.83;;;;;;;28.51;37.31;101868.34;4212691;28;20036;-57
2022/08/29 08:59:15;;;;;;;4.30;3.10;;;;;;;28.53;37.07;101877.28;4222506;28;20023;-58
2022/08/29 09:01:25;;;;;;;3.50;3.20;;;;;;;28.52;37.30;101873.63;4230413;28;20089;-59
2022/08/29 09:03:50;;;;;;;3.55;3.25;;;;;;;28.51;37.06;101877.59;4231276;28;20024;-57
2022/08/29 09:06:21;;;;;;;4.10;3.30;;;;;;;28.49;37.25;101873.41;4230106;28;20040;-58
2022/08/29 09:09:04;;;;;;;3.30;3.00;;;;;;;28.49;37.16;101870.59;4230911;28;20039;-57
2022/08/29 09:11:53;;;;;;;3.33;3.03;;;;;;;28.50;37.33;101866.63;4187857;28;20048;-57
2022/08/29 09:14:20;;;;;;;3.05;2.75;;;;;;;28.51;37.19;101871.16;4178285;28;20115;-57
2022/08/29 09:16:39;;;;;;;3.22;2.92;;;;;;;28.49;37.11;101874.25;4200346;28;20036;-58
2022/08/29 09:18:45;;;;;;;3.63;3.33;;;;;;;28.50;36.99;101875.09;4213978;28;20040;-57
2022/08/29 09:20:47;;;;;;;4.28;3.88;;;;;;;28.50;36.76;101875.09;4215714;28;20028;-60
2022/08/29 09:23:09;;;;;;;3.65;3.28;;;;;;;28.48;37.11;101878.22;4230818;28;20043;-59
2022/08/29 09:25:12;;;;;;;3.10;2.90;;;;;;;28.49;37.14;101879.06;4230720;28;20044;-57
2022/08/29 09:27:26;;;;;;;3.83;3.50;;;;;;;28.44;36.99;101876.34;4230727;28;20031;-57
2022/08/29 09:29:29;;;;;;;3.28;2.97;;;;;;;28.48;36.94;101889.47;4230223;28;20475;-57
2022/08/29 09:31:32;;;;;;;3.53;3.22;;;;;;;28.47;36.74;101881.34;4230242;28;20100;-58
2022/08/29 09:33:51;;;;;;;3.58;3.28;;;;;;;28.46;36.68;101885.31;4218728;28;20044;-58
2022/08/29 09:35:52;;;;;;;3.13;2.80;;;;;;;28.47;36.54;101887.00;4218356;28;20547;-58
2022/08/29 09:38:07;;;;;;;3.40;3.10;;;;;;;28.45;36.88;101878.00;4227414;28;20089;-57
2022/08/29 09:40:16;;;;;;;3.45;3.15;;;;;;;28.45;37.06;101883.63;4221665;28;20048;-57
2022/08/29 09:42:22;;;;;;;3.20;2.90;;;;;;;28.45;36.71;101884.47;4234251;28;20027;-57
2022/08/29 09:44:25;;;;;;;3.42;3.10;;;;;;;28.45;36.79;101883.63;4217523;28;20664;-57
2022/08/29 09:46:26;;;;;;;3.40;3.10;;;;;;;28.45;36.81;101889.25;4216927;28;20495;-57
2022/08/29 09:48:31;;;;;;;2.97;2.78;;;;;;;28.45;36.79;101887.28;4216763;28;20483;-57
2022/08/29 09:50:32;;;;;;;2.80;2.60;;;;;;;28.45;36.86;101892.06;4226547;28;20040;-57
2022/08/29 09:52:39;;;;;;;3.50;3.20;;;;;;;28.44;37.05;101882.78;4232385;28;20047;-57
2022/08/29 09:54:42;;;;;;;3.03;2.83;;;;;;;28.45;36.87;101886.44;4232013;28;20108;-57
2022/08/29 09:57:22;;;;;;;3.13;2.92;;;;;;;28.42;36.88;101884.28;4223684;28;20023;-57
2022/08/29 09:59:36;;;;;;;3.53;3.22;;;;;;;28.45;37.15;101889.25;4202063;28;20410;-57
2022/08/29 10:01:40;;;;;;;3.22;2.92;;;;;;;28.44;36.71;101884.78;4213339;28;20040;-57
2022/08/29 10:03:52;;;;;;;3.00;2.70;;;;;;;28.45;36.72;101883.63;4226314;28;20417;-57
2022/08/29 10:06:14;;;;;;;2.92;2.72;;;;;;;28.30;37.05;101868.66;4220566;28;20047;-57
2022/08/29 10:08:34;;;;;;;3.20;2.83;;;;;;;28.43;36.76;101894.38;4233357;28;20425;-58
2022/08/29 10:10:38;;;;;;;3.35;3.05;;;;;;;28.42;36.96;101889.91;4226215;28;20031;-58
2022/08/29 10:12:45;;;;;;;3.00;2.70;;;;;;;28.43;36.76;101897.19;4216480;28;20141;-57
2022/08/29 10:14:53;;;;;;;2.83;2.63;;;;;;;28.43;36.52;101902.81;4227958;28;20059;-58
2022/08/29 10:19:28;;;;;;;3.45;3.15;;;;;;;28.43;36.63;101902.81;4232380;28;20092;-58
2022/08/29 10:22:05;;;;;;;2.83;2.63;;;;;;;28.42;36.69;101909.59;4227293;28;20044;-58
2022/08/29 10:24:28;;;;;;;3.13;2.67;;;;;;;28.41;36.77;101899.47;4223956;28;20043;-58
2022/08/29 10:27:01;;;;;;;3.28;2.97;;;;;;;28.42;36.79;101903.97;4219267;28;20044;-58
2022/08/29 10:29:29;;;;;;;2.70;2.50;;;;;;;28.40;36.71;101907.09;4220678;28;20044;-60
2022/08/29 10:32:00;;;;;;;3.05;2.78;;;;;;;28.41;36.61;101907.91;4230520;28;20043;-58
2022/08/29 10:34:13;;;;;;;3.40;3.10;;;;;;;28.41;36.80;101905.09;4219308;28;20080;-58
2022/08/29 10:36:26;;;;;;;4.25;2.83;;;;;;;28.40;36.47;101909.91;4223079;28;20047;-58
2022/08/29 10:38:46;;;;;;;2.88;2.67;;;;;;;28.39;36.71;101910.22;4222598;28;20036;-58
2022/08/29 10:41:06;;;;;;;2.95;2.75;;;;;;;28.39;36.75;101913.03;4224271;28;20089;-58
2022/08/29 10:43:28;;;;;;;4.32;2.70;;;;;;;28.39;36.69;101915.84;4230418;28;20423;-58
2022/08/29 10:45:47;;;;;;;3.20;2.90;;;;;;;28.37;36.29;101916.16;4229460;28;20077;-58
2022/08/29 10:47:55;;;;;;;4.10;2.83;;;;;;;28.38;36.55;101914.19;4218163;28;20036;-58
2022/08/29 10:50:35;;;;;;;3.00;2.80;;;;;;;28.35;36.71;101910.81;4227061;28;20082;-58
2022/08/29 10:52:54;;;;;;;2.70;2.50;;;;;;;28.04;36.49;101861.81;4230790;28;20367;-57
2022/08/29 10:55:16;;;;;;;3.60;3.10;;;;;;;28.36;36.41;101923.78;4230878;28;20043;-57
2022/08/29 10:57:55;;;;;;;2.80;2.60;;;;;;;28.36;36.56;101923.78;4222203;28;20073;-57
2022/08/29 11:00:21;;;;;;;2.90;2.70;;;;;;;28.34;36.42;101917.59;4218727;28;20060;-57